Time;durP1;ratioP1;P1;durP2;ratioP2;P2;SDS_P1;SDS_P2;PMS_P1;PMS_P2;Temp;Humidity;BMP_temperature;BMP_pressure;BME280_temperature;BME280_humidity;BME280_pressure;Samples;Min_cycle;Max_cycle;Signal;HPM_P1;HPM_P2
2020/12/29 00:01:45;;;;;;;9.02;3.30;;;17.10;99.90;;;;;;5066981;28;20381;-80
2020/12/29 00:04:12;;;;;;;14.07;3.77;;;17.20;99.90;;;;;;5064817;28;20874;-81
2020/12/29 00:06:45;;;;;;;17.40;4.10;;;17.20;99.90;;;;;;5069529;28;20413;-81
2020/12/29 00:09:13;;;;;;;14.03;3.97;;;17.30;99.90;;;;;;5069389;28;20945;-83
2020/12/29 00:11:42;;;;;;;12.55;3.85;;;17.30;99.90;;;;;;5053714;28;20391;-83
2020/12/29 00:14:09;;;;;;;9.00;3.70;;;17.40;99.90;;;;;;5054002;28;21222;-82
2020/12/29 00:16:36;;;;;;;13.30;4.50;;;17.30;99.90;;;;;;5068734;28;20422;-83
2020/12/29 00:19:05;;;;;;;14.35;4.35;;;17.30;99.90;;;;;;5060037;28;20402;-82
2020/12/29 00:21:32;;;;;;;12.48;4.25;;;17.20;99.90;;;;;;5058226;28;20382;-83
2020/12/29 00:23:59;;;;;;;14.77;4.10;;;17.30;99.90;;;;;;5066013;28;20435;-82
2020/12/29 00:26:26;;;;;;;12.63;4.07;;;17.30;99.90;;;;;;5067138;28;20550;-82
2020/12/29 00:28:54;;;;;;;11.90;3.90;;;17.40;99.90;;;;;;5054694;28;20401;-82
2020/12/29 00:31:22;;;;;;;11.05;3.92;;;17.50;99.90;;;;;;5066027;28;20880;-83
2020/12/29 00:33:50;;;;;;;14.30;4.38;;;17.60;99.90;;;;;;5063747;28;20405;-81
2020/12/29 00:36:18;;;;;;;10.75;4.53;;;17.70;99.90;;;;;;5058894;28;20489;-83
2020/12/29 00:38:46;;;;;;;11.10;4.28;;;17.70;99.90;;;;;;5068734;28;20405;-82
2020/12/29 00:41:14;;;;;;;11.20;4.15;;;17.80;99.90;;;;;;5068109;28;20857;-82
2020/12/29 00:43:42;;;;;;;12.35;4.20;;;17.80;99.90;;;;;;5060778;28;20398;-82
2020/12/29 00:46:11;;;;;;;10.63;4.68;;;17.80;99.90;;;;;;5068376;28;20406;-83
2020/12/29 00:48:38;;;;;;;12.70;4.70;;;17.80;99.90;;;;;;5069152;28;20382;-83
2020/12/29 00:51:11;;;;;;;13.25;4.80;;;17.70;99.90;;;;;;5062780;28;20406;-83
2020/12/29 00:53:38;;;;;;;12.23;4.45;;;17.70;99.90;;;;;;5067604;28;20393;-83
2020/12/29 00:56:07;;;;;;;8.00;3.22;;;17.60;99.90;;;;;;5068987;28;20390;-83
2020/12/29 00:58:34;;;;;;;8.52;3.72;;;17.70;99.90;;;;;;5064717;28;20394;-83
2020/12/29 01:01:02;;;;;;;10.38;4.38;;;17.70;99.90;;;;;;5067483;28;20469;-82
2020/12/29 01:03:30;;;;;;;8.80;3.65;;;17.80;99.90;;;;;;5066529;28;20390;-82
2020/12/29 01:05:57;;;;;;;9.35;3.92;;;17.90;99.90;;;;;;5067758;28;20406;-83
2020/12/29 01:08:24;;;;;;;7.00;3.65;;;18.20;99.90;;;;;;5067181;28;20390;-83
2020/12/29 01:10:53;;;;;;;5.70;3.15;;;18.30;99.90;;;;;;5068301;28;20404;-82
2020/12/29 01:13:20;;;;;;;4.95;2.50;;;18.40;99.90;;;;;;5067070;28;20488;-82
2020/12/29 01:15:48;;;;;;;5.53;2.45;;;18.50;99.90;;;;;;5063621;28;20390;-82
2020/12/29 01:18:15;;;;;;;7.38;3.30;;;18.50;99.70;;;;;;5055444;28;20395;-81
2020/12/29 01:20:42;;;;;;;7.20;2.97;;;18.70;99.90;;;;;;5060129;28;20884;-81
2020/12/29 01:23:09;;;;;;;6.43;2.80;;;18.80;99.90;;;;;;5065349;28;20394;-81
2020/12/29 01:25:36;;;;;;;5.32;2.30;;;18.90;99.90;;;;;;5048320;28;20527;-81
2020/12/29 01:28:03;;;;;;;5.13;2.00;;;18.90;99.90;;;;;;5067185;28;20870;-81
2020/12/29 01:30:30;;;;;;;8.35;2.15;;;18.80;99.30;;;;;;5065169;28;20587;-82
2020/12/29 01:32:57;;;;;;;3.20;2.20;;;18.70;99.30;;;;;;5058468;28;20410;-82
2020/12/29 01:35:24;;;;;;;6.55;2.47;;;18.80;99.50;;;;;;5060994;28;20378;-82
2020/12/29 01:37:51;;;;;;;5.78;2.13;;;18.70;99.00;;;;;;5057398;28;20452;-81
2020/12/29 01:40:18;;;;;;;5.07;2.30;;;18.50;99.00;;;;;;5068661;28;20382;-81
2020/12/29 01:42:46;;;;;;;6.27;2.40;;;18.30;99.50;;;;;;5068257;28;20946;-81
2020/12/29 01:45:16;;;;;;;7.60;2.90;;;18.30;99.70;;;;;;5056547;28;20466;-82
2020/12/29 01:47:43;;;;;;;6.57;3.40;;;18.30;99.90;;;;;;5068953;28;20374;-81
2020/12/29 01:50:15;;;;;;;4.30;2.60;;;18.40;99.90;;;;;;5068696;28;20386;-82
2020/12/29 01:52:43;;;;;;;4.38;2.17;;;18.50;99.40;;;;;;5067190;28;20420;-81
2020/12/29 01:55:11;;;;;;;5.37;2.70;;;18.50;99.60;;;;;;5068613;28;20431;-82
2020/12/29 01:57:38;;;;;;;3.85;2.45;;;18.50;99.40;;;;;;5068995;28;20371;-81
2020/12/29 02:00:14;;;;;;;5.50;3.22;;;18.50;99.10;;;;;;5066497;28;20445;-82
2020/12/29 02:02:41;;;;;;;9.18;2.90;;;18.50;99.60;;;;;;5066881;28;20385;-82
2020/12/29 02:05:09;;;;;;;5.13;2.53;;;18.60;99.90;;;;;;5066023;28;20443;-82
2020/12/29 02:07:37;;;;;;;6.38;2.90;;;18.60;99.90;;;;;;5065712;28;21047;-82
2020/12/29 02:10:05;;;;;;;5.68;3.20;;;18.50;99.80;;;;;;5066696;28;20422;-82
2020/12/29 02:12:34;;;;;;;4.93;2.90;;;18.50;99.90;;;;;;5065385;28;20400;-83
2020/12/29 02:15:05;;;;;;;6.82;3.25;;;18.40;99.90;;;;;;5068198;28;20736;-82
2020/12/29 02:17:32;;;;;;;8.10;4.47;;;18.30;99.90;;;;;;5067647;28;20367;-82
2020/12/29 02:19:59;;;;;;;10.03;4.77;;;18.20;99.90;;;;;;5057795;28;20428;-81
2020/12/29 02:22:28;;;;;;;9.30;4.03;;;18.10;99.90;;;;;;5068628;28;20444;-82
2020/12/29 02:24:57;;;;;;;8.13;4.00;;;18.10;99.90;;;;;;5061837;28;20399;-83
2020/12/29 02:27:28;;;;;;;8.82;3.80;;;18.20;99.90;;;;;;5055676;28;20430;-82
2020/12/29 02:29:56;;;;;;;6.03;4.28;;;18.10;99.90;;;;;;5071189;28;20390;-82
2020/12/29 02:32:24;;;;;;;7.20;4.13;;;18.10;99.90;;;;;;5072535;28;20378;-81
2020/12/29 02:34:52;;;;;;;6.75;4.25;;;18.00;99.90;;;;;;5072103;28;20844;-82
2020/12/29 02:37:20;;;;;;;6.78;3.55;;;18.00;99.90;;;;;;5072399;28;20397;-82
2020/12/29 02:39:51;;;;;;;7.28;3.58;;;18.00;99.90;;;;;;5072397;28;20409;-82
2020/12/29 02:42:18;;;;;;;9.90;4.00;;;18.00;99.90;;;;;;5072181;28;20417;-82
2020/12/29 02:44:46;;;;;;;7.60;4.53;;;18.00;99.90;;;;;;5072973;28;20417;-82
2020/12/29 02:47:13;;;;;;;7.20;4.10;;;18.00;99.90;;;;;;5072174;28;20438;-82
2020/12/29 02:49:40;;;;;;;7.88;3.97;;;18.10;99.90;;;;;;5073134;28;20378;-82
2020/12/29 02:52:07;;;;;;;8.07;4.07;;;18.10;99.90;;;;;;5070797;28;20477;-82
2020/12/29 02:54:34;;;;;;;6.97;3.80;;;18.10;99.90;;;;;;5068841;28;20386;-82
2020/12/29 02:57:01;;;;;;;10.80;4.38;;;18.20;99.90;;;;;;5062685;28;20435;-82
2020/12/29 02:59:30;;;;;;;8.90;4.70;;;18.20;99.90;;;;;;5062328;28;20477;-82
2020/12/29 03:01:58;;;;;;;7.25;3.30;;;18.20;99.90;;;;;;5063322;28;20394;-82
2020/12/29 03:04:25;;;;;;;6.45;3.20;;;18.20;99.90;;;;;;5070315;28;20392;-82
2020/12/29 03:06:52;;;;;;;4.68;3.47;;;18.10;99.90;;;;;;5069373;28;20407;-81
2020/12/29 03:09:19;;;;;;;5.68;2.72;;;18.00;99.90;;;;;;5069111;28;20417;-81
2020/12/29 03:11:47;;;;;;;5.93;2.53;;;18.00;99.90;;;;;;5067155;28;20395;-81
2020/12/29 03:14:15;;;;;;;5.90;2.90;;;18.00;99.90;;;;;;5070338;28;20382;-82
2020/12/29 03:16:42;;;;;;;5.38;3.22;;;18.00;99.90;;;;;;5067182;28;20880;-82
2020/12/29 03:19:09;;;;;;;5.57;2.85;;;18.00;99.90;;;;;;5069138;28;20437;-81
2020/12/29 03:21:36;;;;;;;5.40;2.37;;;17.90;99.90;;;;;;5063295;28;20428;-81
2020/12/29 03:24:03;;;;;;;5.15;2.58;;;17.90;99.90;;;;;;5061231;28;20401;-83
2020/12/29 03:26:30;;;;;;;5.30;2.45;;;18.00;99.90;;;;;;5068556;28;20433;-81
2020/12/29 03:28:59;;;;;;;3.63;2.70;;;18.00;99.90;;;;;;5068160;28;20416;-82
2020/12/29 03:31:26;;;;;;;4.85;2.40;;;18.00;99.90;;;;;;5073966;28;20480;-84
2020/12/29 03:33:53;;;;;;;5.53;2.00;;;18.00;99.90;;;;;;5083080;28;20458;-83
2020/12/29 03:36:20;;;;;;;3.92;2.05;;;18.00;99.90;;;;;;5069204;28;20869;-82
2020/12/29 03:38:47;;;;;;;4.10;2.33;;;18.00;99.90;;;;;;5069894;28;20599;-82
2020/12/29 03:41:14;;;;;;;3.67;1.83;;;18.10;99.90;;;;;;5067953;28;20800;-82
2020/12/29 03:43:41;;;;;;;4.13;1.85;;;18.20;99.90;;;;;;5069694;28;20381;-81
2020/12/29 03:46:08;;;;;;;3.55;2.05;;;18.20;99.90;;;;;;5064285;28;20402;-81
2020/12/29 03:48:35;;;;;;;3.78;1.73;;;18.30;99.90;;;;;;5068453;28;20405;-81
2020/12/29 03:51:03;;;;;;;4.22;1.83;;;18.40;99.90;;;;;;5068526;28;20727;-85
2020/12/29 03:53:30;;;;;;;5.93;1.80;;;18.40;99.90;;;;;;5069465;28;20463;-82
2020/12/29 03:55:57;;;;;;;2.67;2.00;;;18.40;99.90;;;;;;5068950;28;20941;-82
2020/12/29 03:58:24;;;;;;;4.57;1.60;;;18.40;99.90;;;;;;5067902;28;20393;-81
2020/12/29 04:00:51;;;;;;;3.92;1.30;;;18.60;99.90;;;;;;5066991;28;20892;-82
2020/12/29 04:03:18;;;;;;;3.05;1.50;;;18.60;99.50;;;;;;5071455;28;20383;-84
2020/12/29 04:05:45;;;;;;;3.50;1.60;;;18.60;99.90;;;;;;5065362;28;20403;-82
2020/12/29 04:08:12;;;;;;;2.50;1.48;;;18.60;99.90;;;;;;5065067;28;20523;-82
2020/12/29 04:10:39;;;;;;;4.03;1.75;;;18.50;99.90;;;;;;5067263;28;20503;-83
2020/12/29 04:13:06;;;;;;;4.28;1.90;;;18.40;99.90;;;;;;5065742;28;20500;-82
2020/12/29 04:15:33;;;;;;;3.08;1.92;;;18.20;99.80;;;;;;5066510;28;20382;-83
2020/12/29 04:18:00;;;;;;;4.90;1.85;;;18.10;99.90;;;;;;5065091;28;20828;-81
2020/12/29 04:20:27;;;;;;;7.32;1.67;;;18.10;99.90;;;;;;5058407;28;20462;-82
2020/12/29 04:22:54;;;;;;;6.63;1.95;;;18.10;99.90;;;;;;5061869;28;20733;-82
2020/12/29 04:25:21;;;;;;;4.38;1.80;;;18.00;99.90;;;;;;5057696;28;20400;-82
2020/12/29 04:27:48;;;;;;;3.70;1.35;;;18.00;99.90;;;;;;5067465;28;20398;-81
2020/12/29 04:30:15;;;;;;;4.90;1.50;;;17.90;99.90;;;;;;5055632;28;20418;-80
2020/12/29 04:32:42;;;;;;;2.72;1.42;;;18.00;99.90;;;;;;5068657;28;20456;-81
2020/12/29 04:35:09;;;;;;;4.80;1.75;;;18.00;99.90;;;;;;5068742;28;20434;-83
2020/12/29 04:37:36;;;;;;;3.25;1.30;;;18.00;99.90;;;;;;5069464;28;20389;-82
2020/12/29 04:40:09;;;;;;;5.35;1.50;;;17.90;99.90;;;;;;5062518;28;20404;-81
2020/12/29 04:42:37;;;;;;;2.50;1.60;;;17.90;99.90;;;;;;5049224;28;20388;-81
2020/12/29 04:45:05;;;;;;;3.13;1.50;;;17.90;99.90;;;;;;5049352;28;20429;-81
2020/12/29 04:47:33;;;;;;;5.03;1.60;;;17.90;99.90;;;;;;5049539;28;20499;-81
2020/12/29 04:50:01;;;;;;;4.25;1.60;;;17.90;99.90;;;;;;5066593;28;20390;-82
2020/12/29 04:52:30;;;;;;;4.80;1.55;;;17.80;99.90;;;;;;5069303;28;20746;-84
2020/12/29 04:54:57;;;;;;;6.05;1.42;;;17.80;99.90;;;;;;5058865;28;20390;-81
2020/12/29 04:57:25;;;;;;;5.00;1.50;;;17.70;99.90;;;;;;5049708;28;20758;-82
2020/12/29 04:59:53;;;;;;;2.03;1.35;;;17.70;99.90;;;;;;5064241;28;20424;-80
2020/12/29 05:02:20;;;;;;;3.83;1.60;;;17.70;99.90;;;;;;5067349;28;20394;-82
2020/12/29 05:04:47;;;;;;;4.97;1.25;;;17.70;99.90;;;;;;5064554;28;20497;-82
2020/12/29 05:07:14;;;;;;;1.88;1.10;;;17.80;99.90;;;;;;5066897;28;20954;-82
2020/12/29 05:09:44;;;;;;;5.03;1.58;;;17.70;99.90;;;;;;5066618;28;20431;-81
2020/12/29 05:12:15;;;;;;;3.60;1.38;;;17.70;99.90;;;;;;5067816;28;20431;-82
2020/12/29 05:14:47;;;;;;;1.90;1.45;;;17.60;99.90;;;;;;5066781;28;20492;-82
2020/12/29 05:17:15;;;;;;;1.90;1.30;;;17.50;99.90;;;;;;5068262;28;20405;-81
2020/12/29 05:19:44;;;;;;;2.42;1.40;;;17.60;99.90;;;;;;5069239;28;20377;-82
2020/12/29 05:22:11;;;;;;;2.90;1.50;;;17.60;99.90;;;;;;5081768;28;22002;-83
2020/12/29 05:24:45;;;;;;;2.30;1.15;;;17.60;99.90;;;;;;5068438;28;20481;-82
2020/12/29 05:27:12;;;;;;;3.10;1.38;;;17.80;99.90;;;;;;5065406;28;20781;-81
2020/12/29 05:29:41;;;;;;;2.95;1.33;;;17.80;99.90;;;;;;5066924;28;20484;-81
2020/12/29 05:32:08;;;;;;;2.80;1.20;;;17.80;99.90;;;;;;5064059;28;20471;-82
2020/12/29 05:34:35;;;;;;;2.75;1.40;;;17.80;99.90;;;;;;5061687;28;20449;-81
2020/12/29 05:37:13;;;;;;;3.63;1.60;;;17.80;99.90;;;;;;5066281;28;20886;-82
2020/12/29 05:39:41;;;;;;;2.60;1.33;;;17.80;99.90;;;;;;5059050;28;20402;-81
2020/12/29 05:42:08;;;;;;;2.57;1.40;;;17.80;99.90;;;;;;5064901;28;20410;-82
2020/12/29 05:44:36;;;;;;;1.63;1.20;;;17.90;99.90;;;;;;5067923;28;20394;-82
2020/12/29 05:47:06;;;;;;;1.50;1.05;;;18.10;99.90;;;;;;5064265;28;20473;-82
2020/12/29 05:49:35;;;;;;;2.70;1.43;;;18.10;99.90;;;;;;5061563;28;20393;-81
2020/12/29 05:52:03;;;;;;;3.70;1.25;;;18.20;99.90;;;;;;5064588;28;20398;-81
2020/12/29 05:54:30;;;;;;;6.65;1.40;;;18.30;99.90;;;;;;5076214;28;20388;-81
2020/12/29 05:56:58;;;;;;;2.58;1.33;;;18.40;99.90;;;;;;5070863;28;20480;-80
2020/12/29 05:59:28;;;;;;;2.20;1.38;;;18.60;99.90;;;;;;5075770;28;20389;-81
2020/12/29 06:01:55;;;;;;;2.42;0.90;;;18.70;99.90;;;;;;5064973;28;20411;-80
2020/12/29 06:04:22;;;;;;;1.08;0.90;;;18.70;98.80;;;;;;5069431;28;20882;-80
2020/12/29 06:06:50;;;;;;;2.40;1.02;;;18.80;99.20;;;;;;5067971;28;20421;-80
2020/12/29 06:09:19;;;;;;;1.27;0.90;;;18.70;99.40;;;;;;5064563;28;20737;-81
2020/12/29 06:11:49;;;;;;;3.75;1.10;;;18.70;99.40;;;;;;5070259;28;20392;-80
2020/12/29 06:14:20;;;;;;;3.05;1.02;;;18.80;99.50;;;;;;5056271;28;20387;-80
2020/12/29 06:16:48;;;;;;;3.20;0.90;;;18.80;99.30;;;;;;5062620;28;20414;-81
2020/12/29 06:19:31;;;;;;;1.15;0.98;;;18.80;99.10;;;;;;5060986;28;20404;-80
2020/12/29 06:22:11;;;;;;;3.20;1.10;;;18.70;99.00;;;;;;5069581;28;20861;-80
2020/12/29 06:24:42;;;;;;;1.40;0.85;;;18.50;99.70;;;;;;5065244;28;20743;-79
2020/12/29 06:27:10;;;;;;;1.33;0.70;;;18.50;99.10;;;;;;5067773;28;20402;-80
2020/12/29 06:29:42;;;;;;;3.15;0.80;;;18.50;98.90;;;;;;5066047;28;20749;-79
2020/12/29 06:32:16;;;;;;;1.27;0.55;;;18.50;99.10;;;;;;5065981;28;20402;-81
2020/12/29 06:34:45;;;;;;;3.38;0.68;;;18.30;99.40;;;;;;5067746;28;20397;-81
2020/12/29 06:37:23;;;;;;;3.10;0.60;;;18.30;99.50;;;;;;5070300;28;20469;-81
2020/12/29 06:39:57;;;;;;;2.10;0.60;;;18.20;99.90;;;;;;5070055;28;20390;-81
2020/12/29 06:42:25;;;;;;;1.17;0.60;;;18.20;99.60;;;;;;5070032;28;20495;-82
2020/12/29 06:44:59;;;;;;;3.00;0.50;;;18.20;99.30;;;;;;5070192;28;20492;-81
2020/12/29 06:47:28;;;;;;;3.38;0.70;;;18.20;99.70;;;;;;5065081;28;20415;-81
2020/12/29 06:49:55;;;;;;;2.17;0.47;;;18.10;98.90;;;;;;5066326;28;20939;-81
2020/12/29 06:52:25;;;;;;;0.70;0.50;;;18.10;99.40;;;;;;5067197;28;20390;-81
2020/12/29 06:54:57;;;;;;;1.33;0.40;;;18.10;99.50;;;;;;5070145;28;20540;-81
2020/12/29 06:57:48;;;;;;;1.00;0.43;;;18.10;99.50;;;;;;5070484;28;20394;-81
2020/12/29 07:00:15;;;;;;;3.55;0.60;;;18.10;99.70;;;;;;5055985;28;20395;-81
2020/12/29 07:02:45;;;;;;;2.53;0.38;;;18.10;99.90;;;;;;5065454;28;20510;-81
2020/12/29 07:05:26;;;;;;;1.88;0.30;;;18.10;99.70;;;;;;5068053;28;20394;-81
2020/12/29 07:08:01;;;;;;;1.15;0.47;;;18.00;99.90;;;;;;5065121;28;20410;-81
2020/12/29 07:10:41;;;;;;;2.08;0.47;;;17.90;99.90;;;;;;5069158;28;20477;-81
2020/12/29 07:13:19;;;;;;;2.60;0.45;;;17.80;99.90;;;;;;5070353;28;20425;-81
2020/12/29 07:15:55;;;;;;;1.20;0.37;;;17.90;99.90;;;;;;5070321;28;20394;-81
2020/12/29 07:18:27;;;;;;;3.35;0.40;;;17.80;99.90;;;;;;5069486;28;20437;-82
2020/12/29 07:20:56;;;;;;;1.00;0.40;;;17.70;99.90;;;;;;5070414;28;20420;-81
2020/12/29 07:23:28;;;;;;;3.50;0.43;;;17.70;99.90;;;;;;5067420;28;20394;-81
2020/12/29 07:25:59;;;;;;;2.00;0.50;;;17.70;99.90;;;;;;5059760;28;20799;-81
2020/12/29 07:28:29;;;;;;;1.20;0.30;;;17.70;99.90;;;;;;5070744;28;20402;-81
2020/12/29 07:30:56;;;;;;;2.72;0.50;;;17.70;99.90;;;;;;5068610;28;20410;-81
2020/12/29 07:33:26;;;;;;;2.53;0.63;;;17.70;99.90;;;;;;5069305;28;20409;-81
2020/12/29 07:35:54;;;;;;;1.45;0.43;;;17.70;99.90;;;;;;5068984;28;20393;-81
2020/12/29 07:38:28;;;;;;;3.38;0.70;;;17.60;99.90;;;;;;5045456;28;20394;-83
2020/12/29 07:40:55;;;;;;;1.80;0.40;;;17.60;99.90;;;;;;5066706;28;20389;-80
2020/12/29 07:43:22;;;;;;;4.30;0.60;;;17.50;99.90;;;;;;5066026;28;20395;-80
2020/12/29 07:45:49;;;;;;;2.67;0.37;;;17.50;99.90;;;;;;5068954;28;20407;-81
2020/12/29 07:48:16;;;;;;;1.27;0.43;;;17.50;99.90;;;;;;5069033;28;20413;-80
2020/12/29 07:50:44;;;;;;;2.42;0.40;;;17.60;99.90;;;;;;5069011;28;20923;-80
2020/12/29 07:53:12;;;;;;;2.05;0.40;;;17.60;99.90;;;;;;5068261;28;20451;-80
2020/12/29 07:55:46;;;;;;;3.33;0.60;;;17.60;99.90;;;;;;5067493;28;20895;-80
2020/12/29 07:58:13;;;;;;;1.23;0.30;;;17.60;99.90;;;;;;5069750;28;20417;-81
2020/12/29 08:00:41;;;;;;;2.00;0.40;;;17.70;99.90;;;;;;5067388;28;20421;-81
2020/12/29 08:03:09;;;;;;;3.20;0.30;;;17.70;99.90;;;;;;5069005;28;20409;-81
2020/12/29 08:05:37;;;;;;;3.45;0.40;;;17.70;99.90;;;;;;5069987;28;20381;-81
2020/12/29 08:08:07;;;;;;;2.38;0.45;;;17.70;99.90;;;;;;5069001;28;20398;-81
2020/12/29 08:10:39;;;;;;;2.40;0.50;;;17.60;99.90;;;;;;5069319;28;20386;-81
2020/12/29 08:13:11;;;;;;;2.30;0.50;;;17.60;99.90;;;;;;5056979;28;20370;-81
2020/12/29 08:15:40;;;;;;;3.22;0.40;;;17.60;99.90;;;;;;5066709;28;20972;-82
2020/12/29 08:18:20;;;;;;;3.35;0.60;;;17.60;99.90;;;;;;5064250;28;20426;-80
2020/12/29 08:20:48;;;;;;;3.08;0.55;;;17.60;99.90;;;;;;5065553;28;20398;-83
2020/12/29 08:23:17;;;;;;;2.70;0.43;;;17.60;99.90;;;;;;5064494;28;20390;-81
2020/12/29 08:25:52;;;;;;;7.78;0.68;;;17.60;99.90;;;;;;5067014;28;20821;-80
2020/12/29 08:28:21;;;;;;;2.28;0.60;;;17.60;99.90;;;;;;5058793;28;20930;-81
2020/12/29 08:30:48;;;;;;;2.45;0.57;;;17.60;99.90;;;;;;5066005;28;20946;-81
2020/12/29 08:33:18;;;;;;;2.13;0.43;;;17.60;99.90;;;;;;5064394;28;20397;-81
2020/12/29 08:35:53;;;;;;;2.38;0.50;;;17.60;99.90;;;;;;5066962;28;20394;-80
2020/12/29 08:38:39;;;;;;;4.68;0.70;;;17.50;99.90;;;;;;5064113;28;20765;-81
2020/12/29 08:41:12;;;;;;;1.58;0.40;;;17.50;99.90;;;;;;5066495;28;20974;-81
2020/12/29 08:43:47;;;;;;;2.17;0.43;;;17.40;99.90;;;;;;5062973;28;20423;-82
2020/12/29 08:46:17;;;;;;;3.80;0.60;;;17.40;99.90;;;;;;5059311;28;20409;-82
2020/12/29 08:48:54;;;;;;;4.13;0.63;;;17.40;99.90;;;;;;5067665;28;20401;-82
2020/12/29 08:51:32;;;;;;;3.20;0.50;;;17.50;99.90;;;;;;5055903;28;20382;-83
2020/12/29 08:54:16;;;;;;;3.20;0.52;;;17.40;99.90;;;;;;5067172;28;21022;-82
2020/12/29 08:56:47;;;;;;;3.75;0.60;;;17.40;99.90;;;;;;5063854;28;20836;-81
2020/12/29 08:59:22;;;;;;;3.00;0.60;;;17.50;99.90;;;;;;5069518;28;20454;-81
2020/12/29 09:02:01;;;;;;;3.20;0.80;;;17.50;99.90;;;;;;5069204;28;20358;-81
2020/12/29 09:04:40;;;;;;;5.55;0.60;;;17.50;99.90;;;;;;5069335;28;20443;-80
2020/12/29 09:07:12;;;;;;;4.40;0.60;;;17.50;99.90;;;;;;5061653;28;20424;-82
2020/12/29 09:09:54;;;;;;;3.37;0.40;;;17.30;99.90;;;;;;5069188;28;20418;-81
2020/12/29 09:12:23;;;;;;;1.98;0.43;;;17.20;99.90;;;;;;5068228;28;20869;-80
2020/12/29 09:14:55;;;;;;;2.72;0.40;;;17.10;99.90;;;;;;5049147;28;20384;-81
2020/12/29 09:17:30;;;;;;;6.60;0.85;;;17.00;99.90;;;;;;5031296;28;20879;-81
2020/12/29 09:20:19;;;;;;;2.90;0.60;;;17.00;99.90;;;;;;5049086;28;20438;-80
2020/12/29 09:22:50;;;;;;;3.55;0.50;;;16.90;99.90;;;;;;5049135;28;20391;-80
2020/12/29 09:25:35;;;;;;;1.90;0.30;;;16.90;99.90;;;;;;5048917;28;21065;-80
2020/12/29 09:28:19;;;;;;;5.07;0.52;;;16.90;99.90;;;;;;5054032;28;20762;-81
2020/12/29 09:30:59;;;;;;;7.70;0.50;;;16.90;99.90;;;;;;5058029;28;20473;-82
2020/12/29 09:33:29;;;;;;;3.15;0.60;;;16.90;99.90;;;;;;5052213;28;20380;-82
2020/12/29 09:36:02;;;;;;;3.20;0.50;;;16.90;99.90;;;;;;5052227;28;20387;-83
2020/12/29 09:38:30;;;;;;;4.40;0.40;;;16.90;99.90;;;;;;5066759;28;20406;-82
2020/12/29 09:40:58;;;;;;;2.70;0.70;;;16.90;99.90;;;;;;5071195;28;20405;-80
2020/12/29 09:43:25;;;;;;;6.15;0.63;;;16.90;99.90;;;;;;5069595;28;20401;-82
2020/12/29 09:45:52;;;;;;;2.10;0.60;;;16.90;99.90;;;;;;5069409;28;20398;-83
2020/12/29 09:48:20;;;;;;;3.00;0.80;;;16.90;99.90;;;;;;5071033;28;21176;-81
2020/12/29 09:50:47;;;;;;;2.07;0.43;;;16.90;99.90;;;;;;5060945;28;20481;-82
2020/12/29 09:53:14;;;;;;;2.60;0.50;;;16.90;99.90;;;;;;5052395;28;20400;-82
2020/12/29 09:55:41;;;;;;;4.25;0.60;;;16.90;99.90;;;;;;5071315;28;20921;-82
2020/12/29 09:58:08;;;;;;;3.67;0.70;;;16.80;99.90;;;;;;5070412;28;20420;-82
2020/12/29 10:00:36;;;;;;;2.63;0.70;;;16.80;99.90;;;;;;5071551;28;20394;-81
2020/12/29 10:03:03;;;;;;;1.73;0.70;;;16.80;99.90;;;;;;5072107;28;20903;-81
2020/12/29 10:05:30;;;;;;;2.95;0.60;;;16.80;99.90;;;;;;5060723;28;20393;-82
2020/12/29 10:07:57;;;;;;;2.38;0.70;;;16.80;99.90;;;;;;5070298;28;20517;-82
2020/12/29 10:10:24;;;;;;;3.10;0.67;;;16.80;99.90;;;;;;5066837;28;20395;-83
2020/12/29 10:12:51;;;;;;;3.47;0.70;;;16.80;99.90;;;;;;5063148;28;20728;-84
2020/12/29 10:15:18;;;;;;;4.10;0.65;;;16.80;99.90;;;;;;5070484;28;20386;-82
2020/12/29 10:17:45;;;;;;;3.08;0.80;;;16.90;99.90;;;;;;5070633;28;20406;-83
2020/12/29 10:20:12;;;;;;;2.47;0.70;;;16.90;99.90;;;;;;5066319;28;20444;-82
2020/12/29 10:22:39;;;;;;;2.30;0.70;;;16.90;99.90;;;;;;5070204;28;20891;-81
2020/12/29 10:25:10;;;;;;;7.20;0.75;;;16.90;99.90;;;;;;5066331;28;20839;-80
2020/12/29 10:27:38;;;;;;;3.33;0.90;;;16.90;99.90;;;;;;5062017;28;20415;-82
2020/12/29 10:30:05;;;;;;;3.97;0.95;;;16.90;99.90;;;;;;5066431;28;20426;-82
2020/12/29 10:32:32;;;;;;;5.20;1.00;;;16.90;99.90;;;;;;5064398;28;20411;-83
2020/12/29 10:34:59;;;;;;;3.22;1.10;;;16.90;99.90;;;;;;5052106;28;20388;-82
2020/12/29 10:37:26;;;;;;;2.80;1.20;;;16.90;99.90;;;;;;5067075;28;20509;-82
2020/12/29 10:39:53;;;;;;;3.22;1.30;;;16.90;99.90;;;;;;5067248;28;20394;-82
2020/12/29 10:42:20;;;;;;;3.40;1.60;;;16.90;99.90;;;;;;5066427;28;20472;-82
2020/12/29 10:44:47;;;;;;;3.03;1.50;;;16.90;99.90;;;;;;5066835;28;20472;-82
2020/12/29 10:47:14;;;;;;;4.38;1.10;;;16.90;99.90;;;;;;5038327;28;20415;-81
2020/12/29 10:49:42;;;;;;;2.83;1.30;;;17.00;99.90;;;;;;5065365;28;20390;-82
2020/12/29 10:52:09;;;;;;;3.05;1.30;;;16.90;99.90;;;;;;5047715;28;20879;-82
2020/12/29 10:54:39;;;;;;;2.90;1.30;;;17.00;99.90;;;;;;5067691;28;20394;-82
2020/12/29 10:57:09;;;;;;;3.95;1.58;;;17.00;99.90;;;;;;5065833;28;21704;-81
2020/12/29 10:59:37;;;;;;;5.18;1.60;;;17.00;99.90;;;;;;5064066;28;20386;-82
2020/12/29 11:02:05;;;;;;;3.63;1.50;;;16.90;99.90;;;;;;5061763;28;20429;-82
2020/12/29 11:04:32;;;;;;;2.60;1.37;;;16.90;99.90;;;;;;5061243;28;20470;-82
2020/12/29 11:07:00;;;;;;;2.70;1.20;;;17.00;99.90;;;;;;5067932;28;20889;-82
2020/12/29 11:09:28;;;;;;;3.40;1.30;;;16.90;99.90;;;;;;5066558;28;20390;-83
2020/12/29 11:11:55;;;;;;;2.60;1.10;;;17.00;99.90;;;;;;5063565;28;20486;-81
2020/12/29 11:14:22;;;;;;;3.58;1.33;;;16.90;99.90;;;;;;5065795;28;20461;-82
2020/12/29 11:16:50;;;;;;;5.05;1.40;;;17.00;99.90;;;;;;5069192;28;20406;-81
2020/12/29 11:19:17;;;;;;;3.08;1.40;;;17.00;99.90;;;;;;5068608;28;20394;-82
2020/12/29 11:21:47;;;;;;;3.55;1.30;;;17.00;99.90;;;;;;5069570;28;20467;-81
2020/12/29 11:24:16;;;;;;;4.53;1.70;;;16.90;99.90;;;;;;5067596;28;20447;-81
2020/12/29 11:26:44;;;;;;;3.50;1.30;;;16.90;99.90;;;;;;5067735;28;20436;-81
2020/12/29 11:29:11;;;;;;;4.70;1.15;;;16.90;99.90;;;;;;5065129;28;20426;-81
2020/12/29 11:31:38;;;;;;;2.38;1.10;;;17.00;99.90;;;;;;5068566;28;20413;-81
2020/12/29 11:34:06;;;;;;;3.80;1.38;;;17.00;99.90;;;;;;5068711;28;20374;-82
2020/12/29 11:36:33;;;;;;;3.97;1.23;;;17.00;99.90;;;;;;5069188;28;20443;-82
2020/12/29 11:39:00;;;;;;;5.35;1.30;;;17.10;99.90;;;;;;5070061;28;20425;-81
2020/12/29 11:41:27;;;;;;;5.38;1.50;;;17.10;99.90;;;;;;5061285;28;20400;-81
2020/12/29 11:43:54;;;;;;;5.95;1.48;;;17.00;99.90;;;;;;5066121;28;20394;-82
2020/12/29 11:46:21;;;;;;;6.25;1.30;;;17.00;99.90;;;;;;5071415;28;20463;-82
2020/12/29 11:48:48;;;;;;;3.33;1.30;;;17.10;99.90;;;;;;5070480;28;20444;-83
2020/12/29 11:51:15;;;;;;;6.10;1.40;;;17.10;99.90;;;;;;5070345;28;20390;-82
2020/12/29 11:53:42;;;;;;;3.70;1.35;;;17.10;99.90;;;;;;5068843;28;20402;-82
2020/12/29 11:56:12;;;;;;;4.70;1.42;;;17.10;99.90;;;;;;5064334;28;20753;-82
2020/12/29 11:58:39;;;;;;;2.38;1.10;;;17.10;99.90;;;;;;5069293;28;20753;-81
2020/12/29 12:01:07;;;;;;;2.80;1.10;;;17.10;99.90;;;;;;5070128;28;20423;-82
2020/12/29 12:03:34;;;;;;;1.85;0.70;;;17.10;99.90;;;;;;5067414;28;20436;-81
2020/12/29 12:06:01;;;;;;;3.58;1.10;;;17.10;99.90;;;;;;5068847;28;20390;-81
2020/12/29 12:08:28;;;;;;;3.22;1.00;;;17.10;99.90;;;;;;5069105;28;20497;-81
2020/12/29 12:10:55;;;;;;;2.00;0.88;;;17.10;99.90;;;;;;5063551;28;20397;-81
2020/12/29 12:13:22;;;;;;;4.40;0.90;;;17.10;99.90;;;;;;5066871;28;20398;-82
2020/12/29 12:15:49;;;;;;;4.40;0.70;;;17.10;99.90;;;;;;5068861;28;20404;-82
2020/12/29 12:18:19;;;;;;;1.95;0.60;;;17.20;99.90;;;;;;5068865;28;20413;-83
2020/12/29 12:20:50;;;;;;;1.48;0.60;;;17.20;99.90;;;;;;5068821;28;20398;-81
2020/12/29 12:23:17;;;;;;;3.15;0.50;;;17.20;99.90;;;;;;5067617;28;20405;-82
2020/12/29 12:25:44;;;;;;;3.70;0.47;;;17.30;99.90;;;;;;5066204;28;20492;-82
2020/12/29 12:28:11;;;;;;;2.10;0.30;;;17.30;99.90;;;;;;5068548;28;20455;-82
2020/12/29 12:30:39;;;;;;;2.65;0.90;;;17.40;99.90;;;;;;5066164;28;20378;-82
2020/12/29 12:33:05;;;;;;;3.30;0.60;;;17.30;99.90;;;;;;5067646;28;20773;-81
2020/12/29 12:35:32;;;;;;;3.47;0.65;;;17.30;99.90;;;;;;5068183;28;20408;-82
2020/12/29 12:37:59;;;;;;;3.50;0.68;;;17.30;99.90;;;;;;5067176;28;20402;-81
2020/12/29 12:40:26;;;;;;;3.42;0.85;;;17.30;99.90;;;;;;5050045;28;20393;-81
2020/12/29 12:42:53;;;;;;;5.75;1.00;;;17.30;99.90;;;;;;5069585;28;20378;-81
2020/12/29 12:45:20;;;;;;;7.10;1.30;;;17.30;99.90;;;;;;5066892;28;20393;-80
2020/12/29 12:47:47;;;;;;;10.87;1.70;;;17.20;99.90;;;;;;5068663;28;20456;-81
2020/12/29 12:50:15;;;;;;;10.10;1.55;;;17.20;99.90;;;;;;5067164;28;20451;-81
2020/12/29 12:52:42;;;;;;;14.43;1.75;;;17.10;99.90;;;;;;5067071;28;20455;-81
2020/12/29 12:55:09;;;;;;;14.52;2.20;;;17.10;99.90;;;;;;5068917;28;20386;-81